sensor_id;sensor_type;location;lat;lon;timestamp;temperature;humidity
17859;DHT22;35426;30.698;104.050;2023-03-21T00:01:05;16.40;99.90
17859;DHT22;35426;30.698;104.050;2023-03-21T00:03:42;16.40;99.90
17859;DHT22;35426;30.698;104.050;2023-03-21T00:06:21;16.70;99.90
17859;DHT22;35426;30.698;104.050;2023-03-21T00:09:03;17.00;99.90
17859;DHT22;35426;30.698;104.050;2023-03-21T00:11:40;17.10;99.90
17859;DHT22;35426;30.698;104.050;2023-03-21T00:14:18;17.10;99.90
17859;DHT22;35426;30.698;104.050;2023-03-21T00:16:55;17.40;99.90
17859;DHT22;35426;30.698;104.050;2023-03-21T00:19:31;17.50;99.90
17859;DHT22;35426;30.698;104.050;2023-03-21T00:22:15;17.70;99.90
17859;DHT22;35426;30.698;104.050;2023-03-21T00:24:53;17.90;99.90
17859;DHT22;35426;30.698;104.050;2023-03-21T00:27:31;18.20;99.90
17859;DHT22;35426;30.698;104.050;2023-03-21T00:30:28;18.60;99.90
17859;DHT22;35426;30.698;104.050;2023-03-21T00:33:04;19.10;99.90
17859;DHT22;35426;30.698;104.050;2023-03-21T00:35:55;19.40;99.90
17859;DHT22;35426;30.698;104.050;2023-03-21T00:38:40;19.60;99.90
17859;DHT22;35426;30.698;104.050;2023-03-21T00:41:20;19.70;99.90
17859;DHT22;35426;30.698;104.050;2023-03-21T00:44:18;20.10;99.90
17859;DHT22;35426;30.698;104.050;2023-03-21T00:46:56;20.00;99.90
17859;DHT22;35426;30.698;104.050;2023-03-21T00:49:37;20.20;99.90
17859;DHT22;35426;30.698;104.050;2023-03-21T00:52:22;20.50;99.90
17859;DHT22;35426;30.698;104.050;2023-03-21T00:55:14;20.70;99.90
17859;DHT22;35426;30.698;104.050;2023-03-21T00:58:00;20.60;99.90
17859;DHT22;35426;30.698;104.050;2023-03-21T01:00:38;20.60;99.90
17859;DHT22;35426;30.698;104.050;2023-03-21T01:03:15;20.30;99.90
17859;DHT22;35426;30.698;104.050;2023-03-21T01:05:57;20.70;99.90
17859;DHT22;35426;30.698;104.050;2023-03-21T01:08:45;21.30;99.90
17859;DHT22;35426;30.698;104.050;2023-03-21T01:11:27;21.40;99.90
17859;DHT22;35426;30.698;104.050;2023-03-21T01:14:08;21.80;99.90
17859;DHT22;35426;30.698;104.050;2023-03-21T01:16:53;22.10;99.90
17859;DHT22;35426;30.698;104.050;2023-03-21T01:19:30;22.20;99.90
17859;DHT22;35426;30.698;104.050;2023-03-21T01:22:23;22.60;99.90
17859;DHT22;35426;30.698;104.050;2023-03-21T01:25:10;22.80;99.90
17859;DHT22;35426;30.698;104.050;2023-03-21T01:27:57;23.10;99.90
17859;DHT22;35426;30.698;104.050;2023-03-21T01:30:37;23.40;99.90
17859;DHT22;35426;30.698;104.050;2023-03-21T01:33:13;23.50;99.90
17859;DHT22;35426;30.698;104.050;2023-03-21T01:35:52;23.60;99.90
17859;DHT22;35426;30.698;104.050;2023-03-21T01:38:44;24.00;99.90
17859;DHT22;35426;30.698;104.050;2023-03-21T01:41:24;23.70;99.90
17859;DHT22;35426;30.698;104.050;2023-03-21T01:44:22;23.70;99.90
17859;DHT22;35426;30.698;104.050;2023-03-21T01:47:05;23.80;99.90
17859;DHT22;35426;30.698;104.050;2023-03-21T01:49:51;23.60;99.90
17859;DHT22;35426;30.698;104.050;2023-03-21T01:52:58;23.40;99.90
17859;DHT22;35426;30.698;104.050;2023-03-21T01:55:39;23.90;99.90
17859;DHT22;35426;30.698;104.050;2023-03-21T01:58:34;24.60;99.90
17859;DHT22;35426;30.698;104.050;2023-03-21T02:01:45;24.50;99.90
17859;DHT22;35426;30.698;104.050;2023-03-21T02:04:29;24.50;99.90
17859;DHT22;35426;30.698;104.050;2023-03-21T02:07:18;24.70;99.90
17859;DHT22;35426;30.698;104.050;2023-03-21T02:10:15;24.80;99.90
17859;DHT22;35426;30.698;104.050;2023-03-21T02:12:59;25.40;99.90
17859;DHT22;35426;30.698;104.050;2023-03-21T02:15:45;25.60;99.90
17859;DHT22;35426;30.698;104.050;2023-03-21T02:18:36;25.10;99.90
17859;DHT22;35426;30.698;104.050;2023-03-21T02:21:48;25.10;99.90
17859;DHT22;35426;30.698;104.050;2023-03-21T02:25:09;25.20;99.90
17859;DHT22;35426;30.698;104.050;2023-03-21T02:27:55;25.40;99.90
17859;DHT22;35426;30.698;104.050;2023-03-21T02:30:52;24.90;99.90
17859;DHT22;35426;30.698;104.050;2023-03-21T02:37:03;24.80;99.90
17859;DHT22;35426;30.698;104.050;2023-03-21T02:39:55;25.00;99.90
17859;DHT22;35426;30.698;104.050;2023-03-21T02:42:38;25.20;99.90
17859;DHT22;35426;30.698;104.050;2023-03-21T02:45:30;25.20;99.90
17859;DHT22;35426;30.698;104.050;2023-03-21T02:48:12;25.30;99.90
17859;DHT22;35426;30.698;104.050;2023-03-21T02:51:04;25.40;99.90
17859;DHT22;35426;30.698;104.050;2023-03-21T02:53:51;25.30;99.90
17859;DHT22;35426;30.698;104.050;2023-03-21T02:56:52;25.00;99.90
17859;DHT22;35426;30.698;104.050;2023-03-21T02:59:31;25.40;99.90
17859;DHT22;35426;30.698;104.050;2023-03-21T03:02:32;25.10;99.90
17859;DHT22;35426;30.698;104.050;2023-03-21T03:05:18;24.80;99.90
17859;DHT22;35426;30.698;104.050;2023-03-21T03:08:05;25.50;99.90
17859;DHT22;35426;30.698;104.050;2023-03-21T03:10:57;25.50;99.90
17859;DHT22;35426;30.698;104.050;2023-03-21T03:13:56;25.60;99.90
17859;DHT22;35426;30.698;104.050;2023-03-21T03:17:18;25.90;99.90
17859;DHT22;35426;30.698;104.050;2023-03-21T03:20:14;25.50;99.90
17859;DHT22;35426;30.698;104.050;2023-03-21T03:23:04;25.80;99.90
17859;DHT22;35426;30.698;104.050;2023-03-21T03:25:55;26.30;99.90
17859;DHT22;35426;30.698;104.050;2023-03-21T03:28:40;26.20;99.90
17859;DHT22;35426;30.698;104.050;2023-03-21T03:31:27;26.40;99.90
17859;DHT22;35426;30.698;104.050;2023-03-21T03:34:07;25.50;99.90
17859;DHT22;35426;30.698;104.050;2023-03-21T03:36:49;25.60;99.90
17859;DHT22;35426;30.698;104.050;2023-03-21T03:39:32;25.70;99.90
17859;DHT22;35426;30.698;104.050;2023-03-21T03:42:17;25.90;99.90
17859;DHT22;35426;30.698;104.050;2023-03-21T03:45:06;25.90;99.90
17859;DHT22;35426;30.698;104.050;2023-03-21T03:47:51;25.60;99.90
17859;DHT22;35426;30.698;104.050;2023-03-21T03:50:37;24.70;99.90
17859;DHT22;35426;30.698;104.050;2023-03-21T03:53:24;24.60;99.90
17859;DHT22;35426;30.698;104.050;2023-03-21T03:56:08;24.50;99.90
17859;DHT22;35426;30.698;104.050;2023-03-21T03:58:51;24.20;99.90
17859;DHT22;35426;30.698;104.050;2023-03-21T04:01:45;24.60;99.90
17859;DHT22;35426;30.698;104.050;2023-03-21T04:04:23;24.70;99.90
17859;DHT22;35426;30.698;104.050;2023-03-21T04:07:01;24.80;99.90
17859;DHT22;35426;30.698;104.050;2023-03-21T04:09:40;24.60;99.90
17859;DHT22;35426;30.698;104.050;2023-03-21T04:12:22;24.60;99.90
17859;DHT22;35426;30.698;104.050;2023-03-21T04:15:19;24.70;99.90
17859;DHT22;35426;30.698;104.050;2023-03-21T04:18:04;24.90;99.90
17859;DHT22;35426;30.698;104.050;2023-03-21T04:20:42;25.20;99.90
17859;DHT22;35426;30.698;104.050;2023-03-21T04:23:30;25.10;99.90
17859;DHT22;35426;30.698;104.050;2023-03-21T04:26:16;25.10;99.90
17859;DHT22;35426;30.698;104.050;2023-03-21T04:29:16;24.90;99.90
17859;DHT22;35426;30.698;104.050;2023-03-21T04:32:21;24.70;99.90
17859;DHT22;35426;30.698;104.050;2023-03-21T04:35:11;24.30;99.90
17859;DHT22;35426;30.698;104.050;2023-03-21T04:37:55;24.50;99.90
17859;DHT22;35426;30.698;104.050;2023-03-21T04:40:35;24.40;99.90
17859;DHT22;35426;30.698;104.050;2023-03-21T04:43:19;24.40;99.90
17859;DHT22;35426;30.698;104.050;2023-03-21T04:46:01;24.60;99.90
17859;DHT22;35426;30.698;104.050;2023-03-21T04:48:40;24.80;99.90
17859;DHT22;35426;30.698;104.050;2023-03-21T04:51:19;24.90;99.90
17859;DHT22;35426;30.698;104.050;2023-03-21T04:53:56;24.90;99.90
17859;DHT22;35426;30.698;104.050;2023-03-21T04:56:36;25.10;99.90
17859;DHT22;35426;30.698;104.050;2023-03-21T04:59:17;25.10;99.90
17859;DHT22;35426;30.698;104.050;2023-03-21T05:02:01;24.60;99.90
17859;DHT22;35426;30.698;104.050;2023-03-21T05:04:44;24.80;99.90
17859;DHT22;35426;30.698;104.050;2023-03-21T05:07:22;24.90;99.90
17859;DHT22;35426;30.698;104.050;2023-03-21T05:10:04;24.80;99.90
17859;DHT22;35426;30.698;104.050;2023-03-21T05:12:44;24.80;99.90
17859;DHT22;35426;30.698;104.050;2023-03-21T05:15:29;24.40;99.90
17859;DHT22;35426;30.698;104.050;2023-03-21T05:18:11;24.60;99.90
17859;DHT22;35426;30.698;104.050;2023-03-21T05:21:13;24.70;99.90
17859;DHT22;35426;30.698;104.050;2023-03-21T05:23:53;24.50;99.90
17859;DHT22;35426;30.698;104.050;2023-03-21T05:26:32;24.10;99.90
17859;DHT22;35426;30.698;104.050;2023-03-21T05:29:19;24.00;99.90
17859;DHT22;35426;30.698;104.050;2023-03-21T05:32:07;23.90;99.90
17859;DHT22;35426;30.698;104.050;2023-03-21T05:34:44;23.70;99.90
17859;DHT22;35426;30.698;104.050;2023-03-21T05:37:32;23.50;99.90
17859;DHT22;35426;30.698;104.050;2023-03-21T05:40:29;23.00;99.90
17859;DHT22;35426;30.698;104.050;2023-03-21T05:43:09;22.90;99.90
17859;DHT22;35426;30.698;104.050;2023-03-21T05:45:46;23.00;99.90
17859;DHT22;35426;30.698;104.050;2023-03-21T05:48:23;23.00;99.90
17859;DHT22;35426;30.698;104.050;2023-03-21T05:51:17;22.90;99.90
17859;DHT22;35426;30.698;104.050;2023-03-21T05:54:04;22.70;99.90
17859;DHT22;35426;30.698;104.050;2023-03-21T05:56:55;22.70;99.90
17859;DHT22;35426;30.698;104.050;2023-03-21T05:59:55;22.50;99.90
17859;DHT22;35426;30.698;104.050;2023-03-21T06:02:47;22.60;99.90
17859;DHT22;35426;30.698;104.050;2023-03-21T06:05:46;22.70;99.90
17859;DHT22;35426;30.698;104.050;2023-03-21T06:08:31;22.50;99.90
17859;DHT22;35426;30.698;104.050;2023-03-21T06:11:19;22.40;99.90
17859;DHT22;35426;30.698;104.050;2023-03-21T06:14:24;22.50;99.90
17859;DHT22;35426;30.698;104.050;2023-03-21T06:17:35;22.60;99.90
17859;DHT22;35426;30.698;104.050;2023-03-21T06:20:18;22.40;99.90
17859;DHT22;35426;30.698;104.050;2023-03-21T06:23:15;22.50;99.90
17859;DHT22;35426;30.698;104.050;2023-03-21T06:26:15;22.60;99.90
17859;DHT22;35426;30.698;104.050;2023-03-21T06:28:59;22.80;99.90
17859;DHT22;35426;30.698;104.050;2023-03-21T06:31:40;22.90;99.90
17859;DHT22;35426;30.698;104.050;2023-03-21T06:34:21;22.90;99.90
17859;DHT22;35426;30.698;104.050;2023-03-21T06:37:06;22.90;99.90
17859;DHT22;35426;30.698;104.050;2023-03-21T06:39:49;23.00;99.90
17859;DHT22;35426;30.698;104.050;2023-03-21T06:42:36;22.80;99.90
17859;DHT22;35426;30.698;104.050;2023-03-21T06:45:44;23.30;99.90
17859;DHT22;35426;30.698;104.050;2023-03-21T06:48:44;23.00;99.90
17859;DHT22;35426;30.698;104.050;2023-03-21T06:51:27;23.20;99.90
17859;DHT22;35426;30.698;104.050;2023-03-21T06:54:19;23.30;99.90
17859;DHT22;35426;30.698;104.050;2023-03-21T06:57:24;23.70;99.90
17859;DHT22;35426;30.698;104.050;2023-03-21T07:00:11;23.70;99.90
17859;DHT22;35426;30.698;104.050;2023-03-21T07:02:51;23.70;99.90
17859;DHT22;35426;30.698;104.050;2023-03-21T07:05:40;23.70;99.90
17859;DHT22;35426;30.698;104.050;2023-03-21T07:08:18;23.60;99.90
17859;DHT22;35426;30.698;104.050;2023-03-21T07:11:01;23.50;99.90
17859;DHT22;35426;30.698;104.050;2023-03-21T07:13:41;23.50;99.90
17859;DHT22;35426;30.698;104.050;2023-03-21T07:16:30;23.30;99.90
17859;DHT22;35426;30.698;104.050;2023-03-21T07:19:17;23.30;99.90
17859;DHT22;35426;30.698;104.050;2023-03-21T07:22:01;22.60;99.90
17859;DHT22;35426;30.698;104.050;2023-03-21T07:24:41;23.00;99.90
17859;DHT22;35426;30.698;104.050;2023-03-21T07:27:44;23.20;99.90
17859;DHT22;35426;30.698;104.050;2023-03-21T07:30:28;23.20;99.90
17859;DHT22;35426;30.698;104.050;2023-03-21T07:33:10;23.20;99.90
17859;DHT22;35426;30.698;104.050;2023-03-21T07:35:51;23.20;99.90
17859;DHT22;35426;30.698;104.050;2023-03-21T07:38:30;23.10;99.90
17859;DHT22;35426;30.698;104.050;2023-03-21T07:41:15;22.90;99.90
17859;DHT22;35426;30.698;104.050;2023-03-21T07:44:19;22.70;99.90
17859;DHT22;35426;30.698;104.050;2023-03-21T07:47:07;22.50;99.90
17859;DHT22;35426;30.698;104.050;2023-03-21T07:50:02;22.40;99.90
17859;DHT22;35426;30.698;104.050;2023-03-21T07:52:49;22.30;99.90
17859;DHT22;35426;30.698;104.050;2023-03-21T07:55:39;22.30;99.90
17859;DHT22;35426;30.698;104.050;2023-03-21T07:58:19;22.20;99.90
17859;DHT22;35426;30.698;104.050;2023-03-21T08:01:10;22.30;99.90
17859;DHT22;35426;30.698;104.050;2023-03-21T08:04:02;22.30;99.90
17859;DHT22;35426;30.698;104.050;2023-03-21T08:06:58;22.40;99.90
17859;DHT22;35426;30.698;104.050;2023-03-21T08:09:54;22.50;99.90
17859;DHT22;35426;30.698;104.050;2023-03-21T08:12:32;22.50;99.90
17859;DHT22;35426;30.698;104.050;2023-03-21T08:15:11;22.50;99.90
17859;DHT22;35426;30.698;104.050;2023-03-21T08:17:54;22.50;99.90
17859;DHT22;35426;30.698;104.050;2023-03-21T08:21:03;22.30;99.90
17859;DHT22;35426;30.698;104.050;2023-03-21T08:24:26;22.40;99.90
17859;DHT22;35426;30.698;104.050;2023-03-21T08:27:08;22.50;99.90
17859;DHT22;35426;30.698;104.050;2023-03-21T08:29:45;22.50;99.90
17859;DHT22;35426;30.698;104.050;2023-03-21T08:32:26;22.40;99.90
17859;DHT22;35426;30.698;104.050;2023-03-21T08:35:14;22.30;99.90
17859;DHT22;35426;30.698;104.050;2023-03-21T08:37:54;22.30;99.90
17859;DHT22;35426;30.698;104.050;2023-03-21T08:40:41;22.20;99.90
17859;DHT22;35426;30.698;104.050;2023-03-21T08:43:23;22.20;99.90
17859;DHT22;35426;30.698;104.050;2023-03-21T08:46:04;22.30;99.90
17859;DHT22;35426;30.698;104.050;2023-03-21T08:48:55;22.30;99.90
17859;DHT22;35426;30.698;104.050;2023-03-21T08:51:38;22.30;99.90
17859;DHT22;35426;30.698;104.050;2023-03-21T08:54:22;22.30;99.90
17859;DHT22;35426;30.698;104.050;2023-03-21T08:57:06;22.20;99.90
17859;DHT22;35426;30.698;104.050;2023-03-21T08:59:43;22.20;99.90
17859;DHT22;35426;30.698;104.050;2023-03-21T09:02:20;22.10;99.90
17859;DHT22;35426;30.698;104.050;2023-03-21T09:04:59;21.90;99.90
17859;DHT22;35426;30.698;104.050;2023-03-21T09:07:44;22.00;99.90
17859;DHT22;35426;30.698;104.050;2023-03-21T09:10:27;22.00;99.90
17859;DHT22;35426;30.698;104.050;2023-03-21T09:13:11;22.10;99.90
17859;DHT22;35426;30.698;104.050;2023-03-21T09:15:50;21.90;99.90
17859;DHT22;35426;30.698;104.050;2023-03-21T09:18:28;21.80;99.90
17859;DHT22;35426;30.698;104.050;2023-03-21T09:21:18;21.70;99.90
17859;DHT22;35426;30.698;104.050;2023-03-21T09:23:55;21.90;99.90
17859;DHT22;35426;30.698;104.050;2023-03-21T09:26:38;21.90;99.90
17859;DHT22;35426;30.698;104.050;2023-03-21T09:29:18;21.80;99.90
17859;DHT22;35426;30.698;104.050;2023-03-21T09:31:55;21.90;99.90
17859;DHT22;35426;30.698;104.050;2023-03-21T09:34:37;21.80;99.90
17859;DHT22;35426;30.698;104.050;2023-03-21T09:37:14;21.70;99.90
17859;DHT22;35426;30.698;104.050;2023-03-21T09:39:53;21.60;99.90
17859;DHT22;35426;30.698;104.050;2023-03-21T09:42:39;21.40;99.90
17859;DHT22;35426;30.698;104.050;2023-03-21T09:45:23;21.40;99.90
17859;DHT22;35426;30.698;104.050;2023-03-21T09:48:14;21.50;99.90
17859;DHT22;35426;30.698;104.050;2023-03-21T09:51:04;21.40;99.90
17859;DHT22;35426;30.698;104.050;2023-03-21T09:53:44;21.20;99.90
17859;DHT22;35426;30.698;104.050;2023-03-21T09:56:26;21.20;99.90
17859;DHT22;35426;30.698;104.050;2023-03-21T09:59:06;21.10;99.90
17859;DHT22;35426;30.698;104.050;2023-03-21T10:01:49;21.10;99.90
17859;DHT22;35426;30.698;104.050;2023-03-21T10:04:29;21.00;99.90
17859;DHT22;35426;30.698;104.050;2023-03-21T10:07:19;20.90;99.90
17859;DHT22;35426;30.698;104.050;2023-03-21T10:10:04;20.90;99.90
17859;DHT22;35426;30.698;104.050;2023-03-21T10:12:42;20.90;99.90
17859;DHT22;35426;30.698;104.050;2023-03-21T10:15:21;20.70;99.90
17859;DHT22;35426;30.698;104.050;2023-03-21T10:18:04;20.70;99.90
17859;DHT22;35426;30.698;104.050;2023-03-21T10:20:53;20.60;99.90
17859;DHT22;35426;30.698;104.050;2023-03-21T10:23:30;20.60;99.90
17859;DHT22;35426;30.698;104.050;2023-03-21T10:26:09;20.60;99.90
17859;DHT22;35426;30.698;104.050;2023-03-21T10:28:51;20.50;99.90
17859;DHT22;35426;30.698;104.050;2023-03-21T10:31:33;20.50;99.90
17859;DHT22;35426;30.698;104.050;2023-03-21T10:34:17;20.40;99.90
17859;DHT22;35426;30.698;104.050;2023-03-21T10:36:56;20.40;99.90
17859;DHT22;35426;30.698;104.050;2023-03-21T10:39:38;20.40;99.90
17859;DHT22;35426;30.698;104.050;2023-03-21T10:42:21;20.50;99.90
17859;DHT22;35426;30.698;104.050;2023-03-21T10:45:02;20.50;99.90
17859;DHT22;35426;30.698;104.050;2023-03-21T10:48:02;20.40;99.90
17859;DHT22;35426;30.698;104.050;2023-03-21T10:50:58;20.40;99.90
17859;DHT22;35426;30.698;104.050;2023-03-21T10:53:43;20.40;99.90
17859;DHT22;35426;30.698;104.050;2023-03-21T10:56:26;20.30;99.90
17859;DHT22;35426;30.698;104.050;2023-03-21T10:59:10;20.30;99.90
17859;DHT22;35426;30.698;104.050;2023-03-21T11:01:57;20.20;99.90
17859;DHT22;35426;30.698;104.050;2023-03-21T11:04:35;20.10;99.90
17859;DHT22;35426;30.698;104.050;2023-03-21T11:07:16;20.10;99.90
17859;DHT22;35426;30.698;104.050;2023-03-21T11:10:14;20.00;99.90
17859;DHT22;35426;30.698;104.050;2023-03-21T11:13:05;19.90;99.90
17859;DHT22;35426;30.698;104.050;2023-03-21T11:15:52;19.80;99.90
17859;DHT22;35426;30.698;104.050;2023-03-21T11:18:39;19.60;99.90
17859;DHT22;35426;30.698;104.050;2023-03-21T11:21:16;19.60;99.90
17859;DHT22;35426;30.698;104.050;2023-03-21T11:24:17;19.50;99.90
17859;DHT22;35426;30.698;104.050;2023-03-21T11:26:58;19.60;99.90
17859;DHT22;35426;30.698;104.050;2023-03-21T11:29:43;19.60;99.90
17859;DHT22;35426;30.698;104.050;2023-03-21T11:32:29;19.50;99.90
17859;DHT22;35426;30.698;104.050;2023-03-21T11:35:14;19.60;99.90
17859;DHT22;35426;30.698;104.050;2023-03-21T11:37:58;19.50;99.90
17859;DHT22;35426;30.698;104.050;2023-03-21T11:40:56;19.50;99.90
17859;DHT22;35426;30.698;104.050;2023-03-21T11:43:52;19.40;99.90
17859;DHT22;35426;30.698;104.050;2023-03-21T11:46:40;19.50;99.90
17859;DHT22;35426;30.698;104.050;2023-03-21T11:49:24;19.40;99.90
17859;DHT22;35426;30.698;104.050;2023-03-21T11:52:12;19.50;99.90
17859;DHT22;35426;30.698;104.050;2023-03-21T11:55:31;19.40;99.90
17859;DHT22;35426;30.698;104.050;2023-03-21T11:58:32;19.50;99.90
17859;DHT22;35426;30.698;104.050;2023-03-21T12:01:25;19.40;99.90
17859;DHT22;35426;30.698;104.050;2023-03-21T12:04:19;19.30;99.90
17859;DHT22;35426;30.698;104.050;2023-03-21T12:07:14;19.20;99.90
17859;DHT22;35426;30.698;104.050;2023-03-21T12:10:04;19.10;99.90
17859;DHT22;35426;30.698;104.050;2023-03-21T12:12:52;19.00;99.90
17859;DHT22;35426;30.698;104.050;2023-03-21T12:15:47;18.80;99.90
17859;DHT22;35426;30.698;104.050;2023-03-21T12:18:56;18.70;99.90
17859;DHT22;35426;30.698;104.050;2023-03-21T12:21:43;18.80;99.90
17859;DHT22;35426;30.698;104.050;2023-03-21T12:24:30;18.70;99.90
17859;DHT22;35426;30.698;104.050;2023-03-21T12:27:29;18.50;99.90
17859;DHT22;35426;30.698;104.050;2023-03-21T12:30:29;18.50;99.90
17859;DHT22;35426;30.698;104.050;2023-03-21T12:33:33;18.50;99.90
17859;DHT22;35426;30.698;104.050;2023-03-21T12:36:40;18.50;99.90
17859;DHT22;35426;30.698;104.050;2023-03-21T12:39:28;18.50;99.90
17859;DHT22;35426;30.698;104.050;2023-03-21T12:42:24;18.70;99.90
17859;DHT22;35426;30.698;104.050;2023-03-21T12:45:34;18.70;99.90
17859;DHT22;35426;30.698;104.050;2023-03-21T12:51:27;18.70;99.90
17859;DHT22;35426;30.698;104.050;2023-03-21T12:54:18;18.70;99.90
17859;DHT22;35426;30.698;104.050;2023-03-21T12:57:12;18.70;99.90
17859;DHT22;35426;30.698;104.050;2023-03-21T13:00:05;18.80;99.90
17859;DHT22;35426;30.698;104.050;2023-03-21T13:02:50;18.80;99.90
17859;DHT22;35426;30.698;104.050;2023-03-21T13:05:32;18.80;99.90
17859;DHT22;35426;30.698;104.050;2023-03-21T13:08:19;18.80;99.90
17859;DHT22;35426;30.698;104.050;2023-03-21T13:11:02;18.80;99.90
17859;DHT22;35426;30.698;104.050;2023-03-21T13:13:46;18.80;99.90
17859;DHT22;35426;30.698;104.050;2023-03-21T13:16:32;18.80;99.90
17859;DHT22;35426;30.698;104.050;2023-03-21T13:19:35;18.90;99.90
17859;DHT22;35426;30.698;104.050;2023-03-21T13:22:25;18.70;99.90
17859;DHT22;35426;30.698;104.050;2023-03-21T13:25:20;18.70;99.90
17859;DHT22;35426;30.698;104.050;2023-03-21T13:28:12;18.70;99.90
17859;DHT22;35426;30.698;104.050;2023-03-21T13:30:52;18.60;99.90
17859;DHT22;35426;30.698;104.050;2023-03-21T13:33:33;18.60;99.90
17859;DHT22;35426;30.698;104.050;2023-03-21T13:36:24;18.60;99.90
17859;DHT22;35426;30.698;104.050;2023-03-21T13:39:18;18.70;99.90
17859;DHT22;35426;30.698;104.050;2023-03-21T13:45:21;18.70;99.90
17859;DHT22;35426;30.698;104.050;2023-03-21T13:48:39;18.70;99.90
17859;DHT22;35426;30.698;104.050;2023-03-21T13:51:52;18.90;99.90
17859;DHT22;35426;30.698;104.050;2023-03-21T13:54:53;19.00;99.90
17859;DHT22;35426;30.698;104.050;2023-03-21T13:57:39;18.70;99.90
17859;DHT22;35426;30.698;104.050;2023-03-21T14:00:37;18.70;99.90
17859;DHT22;35426;30.698;104.050;2023-03-21T14:03:18;18.60;99.90
17859;DHT22;35426;30.698;104.050;2023-03-21T14:06:04;18.80;99.90
17859;DHT22;35426;30.698;104.050;2023-03-21T14:08:47;18.80;99.90
17859;DHT22;35426;30.698;104.050;2023-03-21T14:11:30;19.00;99.90
17859;DHT22;35426;30.698;104.050;2023-03-21T14:14:14;19.10;99.90
17859;DHT22;35426;30.698;104.050;2023-03-21T14:17:00;19.20;99.90
17859;DHT22;35426;30.698;104.050;2023-03-21T14:19:39;19.20;99.90
17859;DHT22;35426;30.698;104.050;2023-03-21T14:22:20;19.20;99.90
17859;DHT22;35426;30.698;104.050;2023-03-21T14:25:06;19.20;99.90
17859;DHT22;35426;30.698;104.050;2023-03-21T14:27:52;19.30;99.90
17859;DHT22;35426;30.698;104.050;2023-03-21T14:30:33;19.20;99.90
17859;DHT22;35426;30.698;104.050;2023-03-21T14:33:27;19.20;99.90
17859;DHT22;35426;30.698;104.050;2023-03-21T14:36:13;19.20;99.90
17859;DHT22;35426;30.698;104.050;2023-03-21T14:39:10;19.20;99.90
17859;DHT22;35426;30.698;104.050;2023-03-21T14:41:52;19.20;99.90
17859;DHT22;35426;30.698;104.050;2023-03-21T14:44:36;19.00;99.90
17859;DHT22;35426;30.698;104.050;2023-03-21T14:47:29;18.90;99.90
17859;DHT22;35426;30.698;104.050;2023-03-21T14:50:13;18.90;99.90
17859;DHT22;35426;30.698;104.050;2023-03-21T14:53:05;18.70;99.90
17859;DHT22;35426;30.698;104.050;2023-03-21T14:55:57;18.50;99.90
17859;DHT22;35426;30.698;104.050;2023-03-21T14:58:40;18.50;99.90
17859;DHT22;35426;30.698;104.050;2023-03-21T15:01:26;18.50;99.90
17859;DHT22;35426;30.698;104.050;2023-03-21T15:04:10;18.70;99.90
17859;DHT22;35426;30.698;104.050;2023-03-21T15:06:56;18.70;99.90
17859;DHT22;35426;30.698;104.050;2023-03-21T15:09:42;18.70;99.90
17859;DHT22;35426;30.698;104.050;2023-03-21T15:12:29;18.70;99.90
17859;DHT22;35426;30.698;104.050;2023-03-21T15:15:12;18.70;99.90
17859;DHT22;35426;30.698;104.050;2023-03-21T15:17:51;18.60;99.90
17859;DHT22;35426;30.698;104.050;2023-03-21T15:20:37;18.60;99.90
17859;DHT22;35426;30.698;104.050;2023-03-21T15:23:27;18.70;99.90
17859;DHT22;35426;30.698;104.050;2023-03-21T15:26:17;18.60;99.90
17859;DHT22;35426;30.698;104.050;2023-03-21T15:28:58;18.60;99.90
17859;DHT22;35426;30.698;104.050;2023-03-21T15:31:45;18.60;99.90
17859;DHT22;35426;30.698;104.050;2023-03-21T15:34:32;18.50;99.90
17859;DHT22;35426;30.698;104.050;2023-03-21T15:37:26;18.50;99.90
17859;DHT22;35426;30.698;104.050;2023-03-21T15:40:24;18.60;99.90
17859;DHT22;35426;30.698;104.050;2023-03-21T15:43:14;18.60;99.90
17859;DHT22;35426;30.698;104.050;2023-03-21T15:46:13;18.60;99.90
17859;DHT22;35426;30.698;104.050;2023-03-21T15:49:23;18.60;99.90
17859;DHT22;35426;30.698;104.050;2023-03-21T15:52:16;18.60;99.90
17859;DHT22;35426;30.698;104.050;2023-03-21T15:54:53;18.60;99.90
17859;DHT22;35426;30.698;104.050;2023-03-21T15:57:46;18.60;99.90
17859;DHT22;35426;30.698;104.050;2023-03-21T16:00:40;18.60;99.90
17859;DHT22;35426;30.698;104.050;2023-03-21T16:03:32;18.60;99.90
17859;DHT22;35426;30.698;104.050;2023-03-21T16:06:20;18.60;99.90
17859;DHT22;35426;30.698;104.050;2023-03-21T16:09:08;18.60;99.90
17859;DHT22;35426;30.698;104.050;2023-03-21T16:12:07;18.50;99.90
17859;DHT22;35426;30.698;104.050;2023-03-21T16:15:00;18.50;99.90
17859;DHT22;35426;30.698;104.050;2023-03-21T16:17:39;18.60;99.90
17859;DHT22;35426;30.698;104.050;2023-03-21T16:20:30;18.50;99.90
17859;DHT22;35426;30.698;104.050;2023-03-21T16:23:10;18.50;99.90
17859;DHT22;35426;30.698;104.050;2023-03-21T16:25:49;18.60;99.90
17859;DHT22;35426;30.698;104.050;2023-03-21T16:28:34;18.50;99.90
17859;DHT22;35426;30.698;104.050;2023-03-21T16:31:23;18.60;99.90
17859;DHT22;35426;30.698;104.050;2023-03-21T16:34:01;18.60;99.90
17859;DHT22;35426;30.698;104.050;2023-03-21T16:36:41;18.60;99.90
17859;DHT22;35426;30.698;104.050;2023-03-21T16:39:22;18.50;99.90
17859;DHT22;35426;30.698;104.050;2023-03-21T16:42:12;18.40;99.90
17859;DHT22;35426;30.698;104.050;2023-03-21T16:45:23;18.50;99.90
17859;DHT22;35426;30.698;104.050;2023-03-21T16:48:06;18.50;99.90
17859;DHT22;35426;30.698;104.050;2023-03-21T16:50:48;18.50;99.90
17859;DHT22;35426;30.698;104.050;2023-03-21T16:53:25;18.50;99.90
17859;DHT22;35426;30.698;104.050;2023-03-21T16:56:15;18.40;99.90
17859;DHT22;35426;30.698;104.050;2023-03-21T16:58:56;18.50;99.90
17859;DHT22;35426;30.698;104.050;2023-03-21T17:01:45;18.50;99.90
17859;DHT22;35426;30.698;104.050;2023-03-21T17:04:30;18.50;99.90
17859;DHT22;35426;30.698;104.050;2023-03-21T17:07:09;18.40;99.90
17859;DHT22;35426;30.698;104.050;2023-03-21T17:09:46;18.40;99.90
17859;DHT22;35426;30.698;104.050;2023-03-21T17:12:22;18.50;99.90
17859;DHT22;35426;30.698;104.050;2023-03-21T17:14:59;18.50;99.90